createdAt,value
2023-09-30T00:00:00.929Z,47.70
2023-09-30T00:02:29.768Z,47.70
2023-09-30T00:04:57.914Z,47.60
2023-09-30T00:07:26.053Z,47.70
2023-09-30T00:09:54.813Z,47.70
2023-09-30T00:12:23.090Z,47.80
2023-09-30T00:14:52.597Z,47.80
2023-09-30T00:17:20.681Z,47.80
2023-09-30T00:19:48.765Z,47.90
2023-09-30T00:22:16.865Z,48.00
2023-09-30T00:24:44.994Z,47.90
2023-09-30T00:27:13.486Z,48.00
2023-09-30T00:29:41.697Z,48.00
2023-09-30T00:32:11.151Z,48.10
2023-09-30T00:34:39.239Z,48.10
2023-09-30T00:37:07.357Z,48.00
2023-09-30T00:39:35.558Z,48.10
2023-09-30T00:42:05.695Z,48.10
2023-09-30T00:44:34.477Z,48.10
2023-09-30T00:47:02.858Z,48.20
2023-09-30T00:49:32.639Z,48.20
2023-09-30T00:52:02.986Z,48.20
2023-09-30T00:54:31.794Z,48.30
2023-09-30T00:57:01.840Z,48.30
2023-09-30T00:59:33.467Z,48.30
2023-09-30T01:02:02.901Z,48.30
2023-09-30T01:04:32.709Z,48.30
2023-09-30T01:07:00.806Z,48.30
2023-09-30T01:09:29.340Z,48.40
2023-09-30T01:11:57.478Z,48.30
2023-09-30T01:14:29.609Z,48.40
2023-09-30T01:16:58.811Z,48.40
2023-09-30T01:19:27.760Z,48.50
2023-09-30T01:22:01.409Z,48.40
2023-09-30T01:24:29.641Z,48.40
2023-09-30T01:26:58.132Z,48.40
2023-09-30T01:29:27.364Z,48.40
2023-09-30T01:31:55.616Z,48.50
2023-09-30T01:34:24.056Z,48.50
2023-09-30T01:36:52.290Z,48.50
2023-09-30T01:39:23.392Z,48.60
2023-09-30T01:41:51.507Z,48.60
2023-09-30T01:44:19.729Z,48.70
2023-09-30T01:46:47.864Z,48.70
2023-09-30T01:49:15.961Z,48.70
2023-09-30T01:51:44.283Z,48.60
2023-09-30T01:54:12.594Z,48.60
2023-09-30T01:56:42.300Z,48.70
2023-09-30T01:59:10.406Z,48.70
2023-09-30T02:01:38.548Z,48.80
2023-09-30T02:04:08.357Z,48.70
2023-09-30T02:06:36.997Z,48.70
2023-09-30T02:09:09.362Z,48.70
2023-09-30T02:11:37.647Z,48.80
2023-09-30T02:14:08.365Z,48.80
2023-09-30T02:16:36.964Z,48.90
2023-09-30T02:19:05.174Z,48.80
2023-09-30T02:21:33.283Z,48.90
2023-09-30T02:24:01.467Z,49.50
2023-09-30T02:26:30.403Z,49.00
2023-09-30T02:28:59.000Z,48.90
2023-09-30T02:31:28.684Z,48.90
2023-09-30T02:33:57.322Z,49.50
2023-09-30T02:36:25.811Z,49.00
2023-09-30T02:38:54.752Z,49.00
2023-09-30T02:41:22.850Z,49.00
2023-09-30T02:43:50.954Z,49.10
2023-09-30T02:46:19.147Z,49.10
2023-09-30T02:48:48.623Z,49.10
2023-09-30T02:51:16.732Z,49.10
2023-09-30T02:53:44.847Z,49.10
2023-09-30T02:56:12.993Z,49.10
2023-09-30T02:58:41.574Z,49.10
2023-09-30T03:01:11.125Z,49.00
2023-09-30T03:03:41.025Z,49.00
2023-09-30T03:06:11.612Z,49.10
2023-09-30T03:08:39.797Z,49.10
2023-09-30T03:11:08.618Z,49.10
2023-09-30T03:13:36.816Z,49.10
2023-09-30T03:16:05.538Z,49.10
2023-09-30T03:18:33.721Z,49.20
2023-09-30T03:21:03.384Z,49.20
2023-09-30T03:23:32.908Z,49.80
2023-09-30T03:26:01.064Z,49.30
2023-09-30T03:28:29.987Z,49.20
2023-09-30T03:30:58.752Z,49.30
2023-09-30T03:33:27.674Z,49.40
2023-09-30T03:35:55.902Z,49.40
2023-09-30T03:38:23.980Z,49.40
2023-09-30T03:40:55.891Z,49.50
2023-09-30T03:43:24.563Z,49.50
2023-09-30T03:45:54.726Z,49.50
2023-09-30T03:48:22.809Z,49.50
2023-09-30T03:50:50.900Z,49.50
2023-09-30T03:53:18.994Z,49.60
2023-09-30T03:55:47.048Z,50.20
2023-09-30T03:58:16.587Z,49.60
2023-09-30T04:00:44.746Z,49.60
2023-09-30T04:03:13.087Z,49.60
2023-09-30T04:05:41.628Z,49.60
2023-09-30T04:08:09.696Z,49.60
2023-09-30T04:10:37.812Z,49.70
2023-09-30T04:13:05.940Z,49.70
2023-09-30T04:15:37.544Z,49.70
2023-09-30T04:18:07.080Z,49.70
2023-09-30T04:20:35.230Z,49.70
2023-09-30T04:23:03.629Z,49.80
2023-09-30T04:25:31.718Z,49.80
2023-09-30T04:27:59.798Z,49.80
2023-09-30T04:30:28.808Z,49.80
2023-09-30T04:32:59.687Z,49.80
2023-09-30T04:35:27.925Z,49.90
2023-09-30T04:37:56.032Z,49.90
2023-09-30T04:40:24.223Z,50.00
2023-09-30T04:42:52.351Z,50.00
2023-09-30T04:45:22.251Z,49.90
2023-09-30T04:47:51.404Z,50.00
2023-09-30T04:50:23.477Z,50.00
2023-09-30T04:52:53.351Z,50.00
2023-09-30T04:55:21.576Z,50.00
2023-09-30T04:57:50.275Z,50.10
2023-09-30T05:00:25.976Z,50.10
2023-09-30T05:02:55.578Z,50.10
2023-09-30T05:05:25.233Z,50.20
2023-09-30T05:07:53.335Z,50.20
2023-09-30T05:10:21.460Z,50.20
2023-09-30T05:12:49.608Z,50.20
2023-09-30T05:15:18.798Z,50.20
2023-09-30T05:17:48.030Z,50.20
2023-09-30T05:20:18.584Z,50.30
2023-09-30T05:22:50.205Z,50.20
2023-09-30T05:25:19.488Z,50.30
2023-09-30T05:27:49.166Z,50.30
2023-09-30T05:30:18.023Z,50.40
2023-09-30T05:32:47.598Z,50.40
2023-09-30T05:35:18.506Z,50.40
2023-09-30T05:37:48.817Z,50.30
2023-09-30T05:40:23.995Z,50.30
2023-09-30T05:42:53.393Z,50.30
2023-09-30T05:45:21.835Z,50.40
2023-09-30T05:47:52.412Z,50.40
2023-09-30T05:50:25.825Z,50.40
2023-09-30T05:52:56.902Z,50.40
2023-09-30T05:55:27.181Z,50.50
2023-09-30T05:57:56.594Z,50.50
2023-09-30T06:00:29.552Z,50.40
2023-09-30T06:02:58.665Z,50.50
2023-09-30T06:05:28.605Z,50.40
2023-09-30T06:07:58.282Z,50.50
2023-09-30T06:10:26.883Z,50.50
2023-09-30T06:12:56.077Z,50.50
2023-09-30T06:15:27.661Z,50.40
2023-09-30T06:17:56.499Z,50.50
2023-09-30T06:20:27.588Z,50.60
2023-09-30T06:22:57.976Z,50.50
2023-09-30T06:25:26.693Z,50.40
2023-09-30T06:27:55.895Z,50.50
2023-09-30T06:30:30.674Z,50.40
2023-09-30T06:33:01.922Z,50.50
2023-09-30T06:35:31.450Z,50.50
2023-09-30T06:38:02.328Z,50.50
2023-09-30T06:40:30.451Z,50.40
2023-09-30T06:42:59.081Z,50.50
2023-09-30T06:45:27.587Z,50.50
2023-09-30T06:47:56.741Z,50.50
2023-09-30T06:50:25.121Z,50.50
2023-09-30T06:52:53.365Z,50.50
2023-09-30T06:55:23.124Z,50.50
2023-09-30T06:57:52.180Z,50.40
2023-09-30T07:00:20.657Z,50.50
2023-09-30T07:02:48.784Z,50.40
2023-09-30T07:05:18.786Z,50.50
2023-09-30T07:07:47.037Z,50.50
2023-09-30T07:10:15.557Z,50.50
2023-09-30T07:12:45.267Z,50.40
2023-09-30T07:15:14.904Z,50.40
2023-09-30T07:17:45.688Z,50.40
2023-09-30T07:20:14.244Z,50.40
2023-09-30T07:22:55.669Z,50.40
2023-09-30T07:25:27.604Z,50.40
2023-09-30T07:27:57.099Z,50.40
2023-09-30T07:30:25.590Z,50.50
2023-09-30T07:32:54.169Z,50.60
2023-09-30T07:35:22.580Z,50.60
2023-09-30T07:37:54.159Z,50.60
2023-09-30T07:40:23.318Z,50.50
2023-09-30T07:42:52.559Z,50.60
2023-09-30T07:45:22.389Z,50.60
2023-09-30T07:47:52.170Z,50.50
2023-09-30T07:50:20.404Z,50.30
2023-09-30T07:52:48.537Z,50.40
2023-09-30T07:55:16.771Z,50.40
2023-09-30T07:57:45.298Z,50.40
2023-09-30T08:00:17.377Z,50.40
2023-09-30T08:02:47.193Z,50.40
2023-09-30T08:05:15.567Z,50.40
2023-09-30T08:07:43.828Z,50.40
2023-09-30T08:10:14.948Z,50.40
2023-09-30T08:12:46.130Z,50.40
2023-09-30T08:15:14.392Z,50.40
2023-09-30T08:17:42.920Z,50.30
2023-09-30T08:20:14.861Z,50.30
2023-09-30T08:22:43.212Z,50.30
2023-09-30T08:25:11.920Z,50.80
2023-09-30T08:27:40.629Z,50.30
2023-09-30T08:30:11.443Z,50.10
2023-09-30T08:32:39.863Z,50.10
2023-09-30T08:35:10.755Z,49.90
2023-09-30T08:37:40.243Z,50.00
2023-09-30T08:40:11.132Z,50.00
2023-09-30T08:42:41.395Z,49.80
2023-09-30T08:45:15.982Z,49.80
2023-09-30T08:47:44.480Z,49.90
2023-09-30T08:50:13.532Z,49.80
2023-09-30T08:52:44.703Z,49.70
2023-09-30T08:55:13.943Z,49.70
2023-09-30T08:57:44.193Z,49.60
2023-09-30T09:00:14.485Z,49.60
2023-09-30T09:02:43.817Z,49.50
2023-09-30T09:05:12.699Z,49.60
2023-09-30T09:07:44.121Z,49.60
2023-09-30T09:10:14.729Z,49.50
2023-09-30T09:12:43.985Z,49.40
2023-09-30T09:15:25.157Z,49.40
2023-09-30T09:17:54.153Z,49.50
2023-09-30T09:20:23.651Z,49.30
2023-09-30T09:22:56.504Z,49.20
2023-09-30T09:25:25.511Z,49.10
2023-09-30T09:27:55.103Z,49.10
2023-09-30T09:30:25.954Z,49.00
2023-09-30T09:32:56.218Z,48.90
2023-09-30T09:35:26.614Z,48.80
2023-09-30T09:38:00.740Z,48.60
2023-09-30T09:40:33.264Z,48.60
2023-09-30T09:43:05.628Z,48.60
2023-09-30T09:45:36.134Z,48.50
2023-09-30T09:48:05.949Z,48.50
2023-09-30T09:50:34.587Z,48.40
2023-09-30T09:53:06.721Z,48.30
2023-09-30T09:55:35.702Z,48.40
2023-09-30T09:58:05.980Z,48.30
2023-09-30T10:00:35.171Z,48.30
2023-09-30T10:03:05.281Z,48.30
2023-09-30T10:05:33.933Z,48.30
2023-09-30T10:08:08.161Z,48.20
2023-09-30T10:10:40.133Z,48.30
2023-09-30T10:13:08.520Z,48.30
2023-09-30T10:15:37.648Z,48.20
2023-09-30T10:18:11.370Z,48.10
2023-09-30T10:20:46.091Z,48.10
2023-09-30T10:23:23.117Z,48.00
2023-09-30T10:25:52.582Z,48.00
2023-09-30T10:28:37.452Z,48.10
2023-09-30T10:31:17.167Z,48.20
2023-09-30T10:34:22.772Z,48.10
2023-09-30T10:36:53.952Z,48.00
2023-09-30T10:40:04.191Z,47.80
2023-09-30T10:42:56.277Z,47.70
2023-09-30T10:45:47.985Z,47.60
2023-09-30T10:48:38.145Z,47.60
2023-09-30T10:51:22.222Z,47.40
2023-09-30T10:53:53.634Z,47.50
2023-09-30T10:56:22.617Z,47.30
2023-09-30T10:58:53.470Z,47.00
2023-09-30T11:01:23.221Z,46.80
2023-09-30T11:03:52.972Z,46.70
2023-09-30T11:06:23.237Z,46.60
2023-09-30T11:08:55.927Z,46.30
2023-09-30T11:11:44.896Z,45.80
2023-09-30T11:14:22.431Z,45.30
2023-09-30T11:16:51.954Z,44.60
2023-09-30T11:19:21.889Z,44.40
2023-09-30T11:21:51.806Z,43.90
2023-09-30T11:24:20.151Z,43.60
2023-09-30T11:26:48.661Z,43.10
2023-09-30T11:29:18.118Z,42.70
2023-09-30T11:31:49.161Z,42.40
2023-09-30T11:34:20.167Z,41.80
2023-09-30T11:36:52.180Z,41.50
2023-09-30T11:39:27.376Z,40.90
2023-09-30T11:41:56.409Z,40.50
2023-09-30T11:46:56.881Z,39.30
2023-09-30T11:49:30.462Z,39.00
2023-09-30T11:52:00.604Z,39.00
2023-09-30T11:54:33.525Z,39.40
2023-09-30T11:57:02.890Z,39.40
2023-09-30T11:59:31.103Z,39.70
2023-09-30T12:04:32.314Z,39.20
2023-09-30T12:07:00.671Z,39.20
2023-09-30T12:09:29.816Z,38.50
2023-09-30T12:11:59.059Z,38.30
2023-09-30T12:14:27.635Z,38.30
2023-09-30T12:16:55.822Z,38.20
2023-09-30T12:19:27.611Z,38.40
2023-09-30T12:21:56.854Z,38.20
2023-09-30T12:24:25.739Z,37.60
2023-09-30T12:26:54.324Z,37.50
2023-09-30T12:29:24.030Z,37.40
2023-09-30T12:31:55.123Z,37.40
2023-09-30T12:34:27.045Z,37.60
2023-09-30T12:36:57.118Z,37.70
2023-09-30T12:39:26.735Z,37.60
2023-09-30T12:41:56.210Z,37.40
2023-09-30T12:44:24.793Z,37.40
2023-09-30T12:46:53.106Z,37.50
2023-09-30T12:49:21.492Z,37.60
2023-09-30T12:51:51.301Z,37.70
2023-09-30T12:54:20.253Z,37.70
2023-09-30T12:56:48.901Z,37.80
2023-09-30T12:59:17.416Z,38.00
2023-09-30T13:01:46.296Z,38.10
2023-09-30T13:04:14.738Z,38.20
2023-09-30T13:06:42.940Z,38.10
2023-09-30T13:09:13.008Z,38.20
2023-09-30T13:11:41.539Z,38.20
2023-09-30T13:14:09.751Z,38.30
2023-09-30T13:16:38.727Z,38.30
2023-09-30T13:19:06.952Z,38.40
2023-09-30T13:21:35.152Z,38.30
2023-09-30T13:24:03.294Z,38.20
2023-09-30T13:26:32.752Z,38.20
2023-09-30T13:29:01.404Z,38.10
2023-09-30T13:31:29.586Z,38.10
2023-09-30T13:33:57.754Z,38.20
2023-09-30T13:36:25.840Z,38.20
2023-09-30T13:38:53.906Z,38.30
2023-09-30T13:41:21.993Z,38.30
2023-09-30T13:43:51.430Z,38.30
2023-09-30T13:46:19.569Z,38.30
2023-09-30T13:48:48.791Z,38.50
2023-09-30T13:51:16.963Z,38.50
2023-09-30T13:53:45.143Z,38.50
2023-09-30T13:56:13.334Z,38.50
2023-09-30T13:58:41.449Z,38.50
2023-09-30T14:01:12.053Z,38.50
2023-09-30T14:03:42.110Z,38.50
2023-09-30T14:06:13.323Z,38.50
2023-09-30T14:08:43.727Z,38.50
2023-09-30T14:11:12.695Z,38.50
2023-09-30T14:13:41.259Z,38.50
2023-09-30T14:16:11.082Z,38.60
2023-09-30T14:18:40.376Z,38.60
2023-09-30T14:21:08.653Z,38.60
2023-09-30T14:23:39.591Z,38.60
2023-09-30T14:26:12.202Z,38.60
2023-09-30T14:28:40.524Z,38.60
2023-09-30T14:31:10.081Z,38.60
2023-09-30T14:33:38.297Z,38.50
2023-09-30T14:36:07.773Z,38.50
2023-09-30T14:38:37.713Z,38.40
2023-09-30T14:41:10.183Z,38.30
2023-09-30T14:43:38.316Z,38.20
2023-09-30T14:46:06.885Z,38.30
2023-09-30T14:48:36.850Z,38.10
2023-09-30T14:51:05.889Z,38.10
2023-09-30T14:53:34.122Z,38.10
2023-09-30T14:56:02.263Z,37.90
2023-09-30T14:58:30.486Z,37.60
2023-09-30T15:00:59.292Z,37.50
2023-09-30T15:03:27.551Z,37.50
2023-09-30T15:06:02.875Z,37.60
2023-09-30T15:08:31.430Z,37.50
2023-09-30T15:11:00.216Z,37.50
2023-09-30T15:13:29.191Z,37.60
2023-09-30T15:15:57.968Z,37.60
2023-09-30T15:18:26.822Z,37.70
2023-09-30T15:20:54.906Z,37.70
2023-09-30T15:23:24.332Z,37.70
2023-09-30T15:25:52.403Z,37.80
2023-09-30T15:28:20.490Z,37.70
2023-09-30T15:30:52.631Z,37.70
2023-09-30T15:33:20.796Z,37.70
2023-09-30T15:35:48.916Z,37.80
2023-09-30T15:38:17.067Z,37.80
2023-09-30T15:40:55.120Z,37.80
2023-09-30T15:43:23.874Z,37.90
2023-09-30T15:45:52.434Z,38.00
2023-09-30T15:48:19.537Z,38.00
2023-09-30T15:50:47.954Z,38.60
2023-09-30T15:53:16.820Z,38.10
2023-09-30T15:55:44.969Z,38.10
2023-09-30T15:58:14.437Z,38.10
2023-09-30T16:00:43.045Z,38.20
2023-09-30T16:03:12.726Z,38.20
2023-09-30T16:05:41.371Z,38.90
2023-09-30T16:08:11.989Z,38.30
2023-09-30T16:10:40.215Z,38.30
2023-09-30T16:13:09.595Z,38.40
2023-09-30T16:15:43.000Z,38.50
2023-09-30T16:18:11.721Z,38.50
2023-09-30T16:20:40.514Z,38.50
2023-09-30T16:23:08.647Z,38.60
2023-09-30T16:25:36.879Z,38.60
2023-09-30T16:28:06.555Z,38.80
2023-09-30T16:30:35.042Z,38.90
2023-09-30T16:33:05.089Z,38.90
2023-09-30T16:35:33.234Z,39.00
2023-09-30T16:38:01.343Z,39.10
2023-09-30T16:40:29.423Z,39.20
2023-09-30T16:42:58.030Z,39.40
2023-09-30T16:45:26.775Z,39.50
2023-09-30T16:47:55.733Z,39.50
2023-09-30T16:50:25.334Z,39.60
2023-09-30T16:52:53.425Z,39.80
2023-09-30T16:55:21.552Z,39.90
2023-09-30T16:57:49.692Z,40.00
2023-09-30T17:00:20.064Z,40.20
2023-09-30T17:02:48.214Z,40.40
2023-09-30T17:05:16.877Z,40.50
2023-09-30T17:07:46.685Z,40.70
2023-09-30T17:10:15.489Z,40.80
2023-09-30T17:12:45.408Z,41.00
2023-09-30T17:15:14.022Z,41.10
2023-09-30T17:17:42.408Z,41.20
2023-09-30T17:20:11.774Z,41.40
2023-09-30T17:22:39.904Z,41.40
2023-09-30T17:25:10.824Z,41.30
2023-09-30T17:27:42.683Z,41.20
2023-09-30T17:30:17.701Z,41.20
2023-09-30T17:32:51.368Z,41.40
2023-09-30T17:35:19.481Z,41.40
2023-09-30T17:37:48.461Z,41.40
2023-09-30T17:40:18.391Z,41.50
2023-09-30T17:42:46.542Z,41.50
2023-09-30T17:45:14.742Z,41.50
2023-09-30T17:47:42.882Z,41.60
2023-09-30T17:50:11.533Z,41.60
2023-09-30T17:52:39.660Z,41.70
2023-09-30T17:55:08.536Z,41.80
2023-09-30T17:57:38.069Z,41.80
2023-09-30T18:00:28.668Z,41.80
2023-09-30T18:02:57.033Z,41.90
2023-09-30T18:05:25.605Z,42.00
2023-09-30T18:07:53.794Z,42.00
2023-09-30T18:10:22.046Z,42.10
2023-09-30T18:12:51.766Z,42.10
2023-09-30T18:15:19.949Z,42.20
2023-09-30T18:18:00.929Z,42.10
2023-09-30T18:20:36.200Z,42.10
2023-09-30T18:23:04.514Z,42.20
2023-09-30T18:25:35.153Z,42.20
2023-09-30T18:28:05.236Z,42.30
2023-09-30T18:30:33.357Z,42.40
2023-09-30T18:33:02.633Z,42.40
2023-09-30T18:35:30.882Z,42.50
2023-09-30T18:37:58.997Z,42.50
2023-09-30T18:40:27.174Z,42.40
2023-09-30T18:42:55.605Z,42.50
2023-09-30T18:45:25.510Z,42.50
2023-09-30T18:47:55.936Z,42.60
2023-09-30T18:50:24.112Z,42.60
2023-09-30T18:52:52.465Z,42.70
2023-09-30T18:55:20.552Z,42.80
2023-09-30T18:57:48.663Z,42.80
2023-09-30T19:00:18.586Z,42.90
2023-09-30T19:02:48.094Z,43.00
2023-09-30T19:05:16.274Z,43.00
2023-09-30T19:07:44.675Z,43.00
2023-09-30T19:10:12.880Z,43.10
2023-09-30T19:12:41.086Z,43.10
2023-09-30T19:15:10.797Z,43.20
2023-09-30T19:17:39.022Z,43.30
2023-09-30T19:20:10.221Z,43.30
2023-09-30T19:22:38.280Z,43.30
2023-09-30T19:25:07.035Z,43.40
2023-09-30T19:27:35.565Z,43.40
2023-09-30T19:30:06.461Z,43.50
2023-09-30T19:32:35.347Z,43.50
2023-09-30T19:35:05.039Z,43.60
2023-09-30T19:37:34.676Z,43.60
2023-09-30T19:40:02.873Z,43.70
2023-09-30T19:42:31.013Z,43.70
2023-09-30T19:45:00.530Z,43.80
2023-09-30T19:47:29.610Z,43.80
2023-09-30T19:49:57.797Z,43.80
2023-09-30T19:52:29.877Z,43.90
2023-09-30T19:54:59.715Z,43.90
2023-09-30T19:57:30.194Z,44.00
2023-09-30T19:59:58.301Z,44.00
2023-09-30T20:02:26.558Z,44.10
2023-09-30T20:04:54.913Z,44.10
2023-09-30T20:07:24.262Z,44.20
2023-09-30T20:09:53.999Z,44.30
2023-09-30T20:12:23.642Z,44.20
2023-09-30T20:14:51.954Z,44.30
2023-09-30T20:17:20.077Z,44.40
2023-09-30T20:19:49.825Z,44.40
2023-09-30T20:22:18.456Z,44.40
2023-09-30T20:24:46.772Z,44.50
2023-09-30T20:27:14.909Z,44.50
2023-09-30T20:29:44.398Z,44.60
2023-09-30T20:32:12.529Z,44.70
2023-09-30T20:34:40.706Z,44.70
2023-09-30T20:37:08.802Z,44.80
2023-09-30T20:39:36.963Z,44.80
2023-09-30T20:42:05.122Z,44.70
2023-09-30T20:44:33.236Z,44.80
2023-09-30T20:47:03.748Z,44.80
2023-09-30T20:49:31.936Z,44.80
2023-09-30T20:52:00.396Z,44.90
2023-09-30T20:54:28.610Z,44.80
2023-09-30T20:56:56.726Z,44.80
2023-09-30T20:59:24.787Z,44.90
2023-09-30T21:01:53.219Z,44.90
2023-09-30T21:04:22.942Z,45.00
2023-09-30T21:06:51.050Z,45.00
2023-09-30T21:09:19.181Z,45.00
2023-09-30T21:11:47.243Z,45.00
2023-09-30T21:14:15.352Z,45.10
2023-09-30T21:16:43.461Z,45.00
2023-09-30T21:19:12.292Z,45.00
2023-09-30T21:21:41.861Z,45.10
2023-09-30T21:24:10.216Z,45.20
2023-09-30T21:26:38.602Z,45.10
2023-09-30T21:29:06.737Z,45.10
2023-09-30T21:31:34.958Z,45.20
2023-09-30T21:34:03.142Z,45.20
2023-09-30T21:36:31.319Z,45.20
2023-09-30T21:39:00.851Z,45.20
2023-09-30T21:41:29.002Z,45.30
2023-09-30T21:43:57.052Z,45.20
2023-09-30T21:46:25.375Z,45.30
2023-09-30T21:48:55.467Z,45.20
2023-09-30T21:51:23.617Z,45.20
2023-09-30T21:53:51.688Z,45.20
2023-09-30T21:56:21.754Z,45.20
2023-09-30T21:58:52.302Z,45.20
2023-09-30T22:01:20.606Z,45.30
2023-09-30T22:03:48.889Z,45.20
2023-09-30T22:06:17.952Z,45.30
2023-09-30T22:08:46.103Z,45.30
2023-09-30T22:11:14.473Z,45.30
2023-09-30T22:13:44.644Z,45.40
2023-09-30T22:16:13.058Z,45.30
2023-09-30T22:18:41.774Z,45.30
2023-09-30T22:21:11.913Z,45.30
2023-09-30T22:23:40.475Z,45.30
2023-09-30T22:26:08.573Z,45.30
2023-09-30T22:28:36.680Z,45.30
2023-09-30T22:31:06.828Z,45.30
2023-09-30T22:33:35.146Z,45.20
2023-09-30T22:36:03.342Z,45.30
2023-09-30T22:38:31.420Z,45.20
2023-09-30T22:40:59.565Z,45.30
2023-09-30T22:43:27.769Z,45.30
2023-09-30T22:45:55.981Z,45.30
2023-09-30T22:48:25.535Z,45.30
2023-09-30T22:50:53.623Z,45.20
2023-09-30T22:53:21.729Z,45.30
2023-09-30T22:55:50.535Z,45.30
2023-09-30T22:58:18.669Z,45.30
2023-09-30T23:00:46.830Z,45.30
2023-09-30T23:03:15.134Z,45.30
2023-09-30T23:05:45.044Z,45.40
2023-09-30T23:08:14.767Z,45.40
2023-09-30T23:10:42.900Z,45.40
2023-09-30T23:13:11.367Z,45.50
2023-09-30T23:15:40.127Z,45.50
2023-09-30T23:18:08.448Z,45.50
2023-09-30T23:20:39.605Z,45.50
2023-09-30T23:23:09.455Z,45.60
2023-09-30T23:25:37.858Z,45.50
2023-09-30T23:28:08.265Z,45.60
2023-09-30T23:30:36.535Z,45.60
2023-09-30T23:33:07.901Z,45.60
2023-09-30T23:35:38.091Z,45.60
2023-09-30T23:38:08.920Z,45.50
2023-09-30T23:40:38.875Z,45.50
2023-09-30T23:43:08.732Z,45.60
2023-09-30T23:45:38.995Z,45.60
2023-09-30T23:48:09.632Z,45.70
2023-09-30T23:50:39.468Z,45.80
2023-09-30T23:53:07.810Z,45.70
2023-09-30T23:55:37.229Z,46.30
2023-09-30T23:58:11.125Z,45.70
